createdAt,value
2017-10-22T00:00:44.928Z,75.40
2017-10-22T00:03:46.481Z,75.70
2017-10-22T00:06:47.962Z,75.80
2017-10-22T00:09:49.501Z,74.90
2017-10-22T00:12:51.804Z,76.40
2017-10-22T00:15:53.332Z,75.90
2017-10-22T00:18:54.881Z,76.10
2017-10-22T00:21:57.381Z,75.70
2017-10-22T00:24:58.853Z,75.20
2017-10-22T00:28:00.418Z,74.90
2017-10-22T00:31:01.964Z,74.70
2017-10-22T00:34:03.596Z,74.60
2017-10-22T00:37:05.142Z,74.90
2017-10-22T00:40:07.432Z,74.90
2017-10-22T00:43:08.996Z,74.10
2017-10-22T00:46:10.685Z,74.60
2017-10-22T00:49:12.261Z,74.30
2017-10-22T00:52:13.825Z,73.90
2017-10-22T00:55:16.076Z,75.30
2017-10-22T00:58:17.601Z,74.70
2017-10-22T01:01:19.128Z,73.50
2017-10-22T01:04:20.736Z,73.00
2017-10-22T01:07:22.242Z,74.90
2017-10-22T01:10:23.799Z,74.20
2017-10-22T01:13:25.319Z,74.20
2017-10-22T01:16:27.608Z,75.20
2017-10-22T01:22:38.316Z,74.90
2017-10-22T01:25:39.881Z,73.90
2017-10-22T01:28:41.412Z,74.20
2017-10-22T01:31:43.051Z,73.20
2017-10-22T01:34:45.440Z,75.20
2017-10-22T01:37:47.014Z,74.30
2017-10-22T01:40:48.591Z,74.20
2017-10-22T01:43:50.155Z,74.30
2017-10-22T01:46:52.451Z,74.70
2017-10-22T01:49:53.999Z,73.90
2017-10-22T01:52:56.571Z,74.90
2017-10-22T01:55:58.198Z,73.60
2017-10-22T01:58:59.835Z,73.10
2017-10-22T02:02:01.350Z,73.20
2017-10-22T02:05:02.954Z,73.60
2017-10-22T02:08:04.495Z,73.00
2017-10-22T02:11:06.112Z,72.90
2017-10-22T02:14:07.766Z,72.80
2017-10-22T02:17:09.315Z,72.60
2017-10-22T02:20:10.876Z,73.80
2017-10-22T02:23:12.420Z,72.00
2017-10-22T02:26:13.974Z,71.70
2017-10-22T02:29:15.599Z,71.60
2017-10-22T02:32:17.139Z,72.50
2017-10-22T02:35:18.781Z,72.10
2017-10-22T02:38:21.136Z,71.80
2017-10-22T02:41:22.666Z,71.20
2017-10-22T02:44:24.240Z,71.30
2017-10-22T02:47:25.800Z,71.50
2017-10-22T02:50:28.279Z,71.20
2017-10-22T02:53:29.770Z,70.30
2017-10-22T02:56:31.330Z,69.80
2017-10-22T02:59:32.892Z,70.30
2017-10-22T03:02:34.477Z,70.70
2017-10-22T03:05:36.045Z,71.00
2017-10-22T03:08:37.639Z,71.00
2017-10-22T03:11:39.263Z,70.90
2017-10-22T03:14:40.761Z,70.00
2017-10-22T03:17:42.324Z,70.20
2017-10-22T03:20:43.955Z,69.50
2017-10-22T03:23:46.216Z,71.30
2017-10-22T03:26:48.556Z,71.40
2017-10-22T03:29:50.070Z,70.30
2017-10-22T03:32:51.651Z,70.00
2017-10-22T03:35:53.185Z,70.70
2017-10-22T03:38:54.713Z,69.80
2017-10-22T03:41:57.108Z,71.80
2017-10-22T03:44:58.592Z,69.30
2017-10-22T03:48:00.207Z,69.80
2017-10-22T03:51:01.664Z,71.40
2017-10-22T03:54:03.248Z,67.90
2017-10-22T03:57:04.875Z,70.40
2017-10-22T04:00:07.224Z,70.00
2017-10-22T04:03:08.808Z,68.30
2017-10-22T04:06:10.320Z,68.90
2017-10-22T04:09:11.871Z,68.90
2017-10-22T04:12:13.418Z,69.40
2017-10-22T04:15:14.994Z,70.60
2017-10-22T04:18:16.546Z,70.80
2017-10-22T04:21:18.133Z,72.20
2017-10-22T04:24:19.728Z,72.50
2017-10-22T04:27:21.234Z,73.40
2017-10-22T04:30:22.735Z,74.60
2017-10-22T04:33:24.260Z,75.60
2017-10-22T04:36:25.825Z,76.10
2017-10-22T04:39:27.348Z,76.90
2017-10-22T04:42:29.532Z,78.40
2017-10-22T04:45:31.758Z,78.60
2017-10-22T04:48:33.269Z,76.70
2017-10-22T04:51:34.761Z,78.30
2017-10-22T04:54:36.291Z,79.10
2017-10-22T04:57:37.812Z,79.80
2017-10-22T05:00:40.092Z,80.90
2017-10-22T05:03:41.653Z,80.50
2017-10-22T05:06:43.245Z,80.20
2017-10-22T05:09:44.737Z,80.50
2017-10-22T05:12:46.998Z,84.70
2017-10-22T05:15:49.584Z,84.10
2017-10-22T05:18:51.879Z,83.00
2017-10-22T05:21:53.426Z,82.40
2017-10-22T05:24:55.737Z,83.30
2017-10-22T05:27:57.263Z,81.90
2017-10-22T05:30:58.836Z,82.90
2017-10-22T05:34:01.405Z,82.70
2017-10-22T05:37:02.896Z,84.70
2017-10-22T05:40:05.226Z,84.70
2017-10-22T05:43:06.733Z,83.70
2017-10-22T05:46:08.280Z,83.90
2017-10-22T05:49:09.815Z,85.00
2017-10-22T05:52:11.336Z,83.70
2017-10-22T05:59:18.209Z,84.20
2017-10-22T06:02:20.503Z,86.00
2017-10-22T06:05:22.028Z,84.90
2017-10-22T06:08:23.559Z,85.40
2017-10-22T06:11:25.137Z,86.70
2017-10-22T06:14:26.680Z,86.20
2017-10-22T06:17:28.212Z,86.30
2017-10-22T06:20:29.814Z,86.30
2017-10-22T06:23:31.387Z,86.70
2017-10-22T06:26:33.679Z,86.80
2017-10-22T06:29:35.238Z,86.20
2017-10-22T06:32:37.437Z,87.20
2017-10-22T06:35:39.027Z,86.60
2017-10-22T06:38:40.614Z,86.40
2017-10-22T06:41:42.116Z,86.60
2017-10-22T06:44:43.722Z,86.00
2017-10-22T06:47:45.268Z,86.20
2017-10-22T06:50:46.864Z,85.90
2017-10-22T06:53:48.393Z,86.80
2017-10-22T06:56:49.974Z,86.60
2017-10-22T06:59:51.569Z,86.60
2017-10-22T07:02:53.081Z,86.10
2017-10-22T07:05:54.648Z,87.80
2017-10-22T07:08:56.254Z,86.60
2017-10-22T07:11:57.823Z,86.70
2017-10-22T07:14:59.412Z,86.00
2017-10-22T07:18:01.047Z,86.10
2017-10-22T07:21:02.580Z,86.00
2017-10-22T07:24:04.098Z,86.70
2017-10-22T07:27:06.570Z,86.80
2017-10-22T07:30:08.160Z,87.30
2017-10-22T07:33:10.444Z,87.10
2017-10-22T07:36:12.035Z,87.60
2017-10-22T07:39:13.592Z,87.10
2017-10-22T07:45:23.361Z,86.90
2017-10-22T07:48:25.030Z,87.40
2017-10-22T07:51:26.611Z,87.50
2017-10-22T07:54:31.345Z,88.50
2017-10-22T07:57:33.244Z,88.00
2017-10-22T08:00:35.241Z,90.10
2017-10-22T08:03:40.412Z,87.20
2017-10-22T08:06:47.743Z,88.40
2017-10-22T08:09:51.916Z,88.40
2017-10-22T08:12:54.006Z,88.10
2017-10-22T08:15:58.893Z,87.20
2017-10-22T08:19:00.470Z,88.70
2017-10-22T08:22:02.888Z,88.60
2017-10-22T08:25:04.503Z,87.70
2017-10-22T08:28:06.727Z,88.00
2017-10-22T08:31:08.260Z,87.20
2017-10-22T08:34:09.823Z,90.90
2017-10-22T08:37:11.361Z,89.80
2017-10-22T08:40:12.904Z,84.50
2017-10-22T08:43:14.491Z,81.10
2017-10-22T08:46:16.033Z,84.70
2017-10-22T08:49:17.639Z,85.00
2017-10-22T08:52:19.301Z,82.00
2017-10-22T08:55:20.886Z,81.10
2017-10-22T08:58:22.558Z,81.20
2017-10-22T09:01:25.077Z,82.70
2017-10-22T09:04:27.413Z,83.00
2017-10-22T09:07:28.971Z,81.60
2017-10-22T09:10:30.594Z,83.60
2017-10-22T09:13:32.954Z,86.10
2017-10-22T09:16:34.536Z,85.60
2017-10-22T09:19:36.897Z,86.00
2017-10-22T09:22:39.216Z,86.60
2017-10-22T09:25:41.979Z,86.40
2017-10-22T09:28:45.235Z,85.50
2017-10-22T09:31:48.115Z,86.90
2017-10-22T09:34:51.744Z,86.90
2017-10-22T09:37:54.592Z,86.30
2017-10-22T09:40:56.175Z,85.80
2017-10-22T09:43:58.560Z,86.90
2017-10-22T09:47:00.880Z,86.90
2017-10-22T09:50:05.372Z,86.30
2017-10-22T09:53:07.638Z,86.20
2017-10-22T09:56:09.985Z,86.90
2017-10-22T09:59:20.752Z,86.90
2017-10-22T10:06:28.164Z,86.50
2017-10-22T10:09:30.568Z,88.00
2017-10-22T10:12:34.119Z,86.60
2017-10-22T10:15:35.685Z,86.10
2017-10-22T10:18:37.350Z,86.40
2017-10-22T10:21:39.897Z,86.60
2017-10-22T10:24:41.463Z,87.80
2017-10-22T10:27:43.101Z,87.10
2017-10-22T10:30:45.626Z,87.10
2017-10-22T10:33:47.163Z,87.50
2017-10-22T10:36:54.128Z,86.40
2017-10-22T10:39:56.579Z,87.60
2017-10-22T10:43:11.989Z,86.00
2017-10-22T10:46:14.284Z,89.50
2017-10-22T10:50:09.703Z,88.50
2017-10-22T10:58:40.535Z,87.80
2017-10-22T11:01:53.920Z,88.20
2017-10-22T11:05:25.618Z,89.30
2017-10-22T11:08:43.137Z,88.70
2017-10-22T11:12:44.666Z,89.50
2017-10-22T11:15:56.880Z,89.00
2017-10-22T11:22:34.198Z,89.40
2017-10-22T11:40:13.367Z,90.40
2017-10-22T12:07:58.857Z,89.50
2017-10-22T12:11:04.197Z,90.30
2017-10-22T12:14:07.176Z,90.40
2017-10-22T12:20:19.299Z,90.40
2017-10-22T12:23:22.128Z,90.90
2017-10-22T12:26:23.656Z,90.10
2017-10-22T12:29:25.906Z,90.20
2017-10-22T12:32:27.500Z,89.80
2017-10-22T12:35:29.024Z,89.50
2017-10-22T12:38:30.613Z,90.50
2017-10-22T12:41:32.236Z,89.50
2017-10-22T12:44:35.515Z,90.10
2017-10-22T12:47:38.718Z,89.30
2017-10-22T12:50:40.398Z,88.50
2017-10-22T12:53:42.779Z,90.20
2017-10-22T12:56:46.487Z,90.00
2017-10-22T12:59:49.093Z,88.00
2017-10-22T13:02:57.710Z,88.50
2017-10-22T13:06:01.687Z,88.80
2017-10-22T13:09:04.108Z,89.40
2017-10-22T13:12:09.939Z,88.60
2017-10-22T13:15:13.858Z,87.80
2017-10-22T13:21:25.193Z,88.30
2017-10-22T13:24:26.880Z,88.50
2017-10-22T13:27:32.202Z,89.50
2017-10-22T13:30:33.926Z,88.70
2017-10-22T13:33:37.732Z,88.30
2017-10-22T13:36:47.163Z,89.50
2017-10-22T13:40:03.854Z,88.70
2017-10-22T13:43:12.368Z,87.90
2017-10-22T13:46:17.236Z,90.00
2017-10-22T13:49:29.439Z,89.10
2017-10-22T13:52:44.991Z,87.80
2017-10-22T13:55:46.536Z,88.50
2017-10-22T13:58:49.505Z,90.00
2017-10-22T14:01:53.568Z,89.30
2017-10-22T14:04:57.404Z,89.70
2017-10-22T14:08:02.104Z,88.70
2017-10-22T14:11:19.021Z,87.90
2017-10-22T14:14:27.948Z,88.40
2017-10-22T14:17:32.491Z,89.30
2017-10-22T14:20:41.349Z,87.70
2017-10-22T14:23:46.053Z,88.90
2017-10-22T14:27:01.406Z,89.00
2017-10-22T14:30:06.003Z,87.70
2017-10-22T14:33:44.688Z,88.10
2017-10-22T14:36:54.854Z,88.10
2017-10-22T14:40:12.085Z,87.80
2017-10-22T14:43:28.825Z,88.10
2017-10-22T15:29:02.196Z,88.90
2017-10-22T15:32:14.784Z,85.80
2017-10-22T15:35:22.837Z,87.80
2017-10-22T15:38:28.648Z,88.00
2017-10-22T15:41:34.646Z,88.20
2017-10-22T15:44:45.702Z,86.40
2017-10-22T15:47:59.437Z,86.00
2017-10-22T15:51:02.216Z,86.40
2017-10-22T15:54:15.075Z,85.70
2017-10-22T15:57:20.673Z,85.40
2017-10-22T16:00:25.790Z,87.10
2017-10-22T16:03:52.837Z,86.30
2017-10-22T16:06:57.044Z,87.30
2017-10-22T16:10:01.461Z,87.20
2017-10-22T16:13:05.773Z,86.70
2017-10-22T16:16:08.060Z,88.20
2017-10-22T16:19:12.427Z,87.00
2017-10-22T16:22:24.160Z,87.20
2017-10-22T16:25:26.797Z,86.80
2017-10-22T16:28:35.087Z,87.30
2017-10-22T16:31:46.789Z,85.70
2017-10-22T16:35:03.469Z,87.20
2017-10-22T16:38:10.338Z,86.40
2017-10-22T16:41:15.112Z,85.40
2017-10-22T16:44:17.458Z,86.60
2017-10-22T16:47:21.364Z,86.20
2017-10-22T16:50:25.053Z,87.00
2017-10-22T16:53:33.817Z,86.20
2017-10-22T16:56:35.823Z,86.10
2017-10-22T16:59:37.548Z,85.70
2017-10-22T17:02:39.237Z,85.70
2017-10-22T17:05:43.251Z,85.10
2017-10-22T17:08:48.718Z,85.10
2017-10-22T17:11:55.614Z,86.00
2017-10-22T17:15:10.077Z,85.70
2017-10-22T17:18:24.583Z,85.80
2017-10-22T17:21:28.407Z,85.10
2017-10-22T17:24:33.785Z,85.00
2017-10-22T17:27:38.182Z,84.10
2017-10-22T17:30:39.857Z,84.90
2017-10-22T17:33:41.536Z,84.80
2017-10-22T17:36:50.060Z,84.90
2017-10-22T17:40:14.417Z,86.30
2017-10-22T17:43:20.512Z,84.80
2017-10-22T17:46:23.870Z,85.40
2017-10-22T17:49:37.615Z,84.00
2017-10-22T17:52:46.006Z,85.10
2017-10-22T17:56:10.982Z,84.90
2017-10-22T18:04:17.924Z,84.30
2017-10-22T18:13:08.001Z,86.00
2017-10-22T18:16:21.809Z,84.10
2017-10-22T18:19:43.865Z,83.20
2017-10-22T18:23:09.391Z,83.20
2017-10-22T18:41:12.764Z,83.10
2017-10-22T19:41:20.179Z,82.10
2017-10-22T19:44:23.134Z,81.50
2017-10-22T19:47:27.870Z,82.50
2017-10-22T19:50:30.261Z,81.80
2017-10-22T19:53:32.223Z,81.20
2017-10-22T19:56:34.670Z,80.80
2017-10-22T19:59:56.994Z,81.60
2017-10-22T20:02:59.237Z,80.20
2017-10-22T20:06:03.229Z,80.70
2017-10-22T20:18:19.615Z,82.20
2017-10-22T20:21:23.449Z,81.80
2017-10-22T20:24:56.620Z,81.30
2017-10-22T20:28:05.366Z,82.50
2017-10-22T20:31:10.220Z,82.70
2017-10-22T20:34:12.915Z,82.60
2017-10-22T20:37:20.937Z,83.00
2017-10-22T20:40:23.332Z,83.50
2017-10-22T20:43:26.694Z,82.70
2017-10-22T20:46:32.024Z,83.10
2017-10-22T20:49:36.451Z,82.70
2017-10-22T20:52:38.139Z,84.00
2017-10-22T20:55:42.347Z,83.10
2017-10-22T20:58:44.043Z,83.70
2017-10-22T21:01:51.203Z,83.60
2017-10-22T21:04:52.874Z,82.90
2017-10-22T21:08:11.661Z,82.80
2017-10-22T21:11:16.128Z,83.30
2017-10-22T21:14:20.511Z,82.70
2017-10-22T21:17:27.079Z,84.90
2017-10-22T21:20:39.249Z,83.80
2017-10-22T21:23:41.235Z,83.30
2017-10-22T21:27:05.042Z,83.40
2017-10-22T21:30:17.038Z,83.00
2017-10-22T21:33:26.633Z,82.80
2017-10-22T21:36:32.346Z,83.10
2017-10-22T21:39:34.874Z,83.10
2017-10-22T21:42:37.182Z,82.40
2017-10-22T21:45:51.482Z,83.30
2017-10-22T21:49:04.730Z,81.80
2017-10-22T21:52:16.344Z,82.50
2017-10-22T21:55:17.972Z,83.90
2017-10-22T21:58:23.348Z,82.80
2017-10-22T22:01:28.764Z,81.90
2017-10-22T22:04:34.123Z,83.50
2017-10-22T22:07:46.308Z,83.10
2017-10-22T22:10:48.962Z,83.90
2017-10-22T22:13:50.712Z,82.10
2017-10-22T22:16:53.942Z,81.90
2017-10-22T22:23:04.772Z,82.50
2017-10-22T22:26:06.476Z,83.60
2017-10-22T22:29:13.221Z,83.00
2017-10-22T22:32:14.902Z,84.20
2017-10-22T22:35:20.191Z,82.50
2017-10-22T22:38:22.057Z,83.00
2017-10-22T22:41:24.755Z,82.60
2017-10-22T22:44:31.422Z,82.60
2017-10-22T22:47:35.065Z,83.20
2017-10-22T22:50:41.044Z,82.70
2017-10-22T22:53:43.649Z,83.50
2017-10-22T22:56:50.308Z,83.10
2017-10-22T22:59:52.291Z,83.00
2017-10-22T23:02:54.725Z,81.50
2017-10-22T23:05:56.522Z,81.90
2017-10-22T23:08:58.253Z,82.60
2017-10-22T23:12:00.072Z,82.00
2017-10-22T23:15:01.789Z,83.70
2017-10-22T23:18:03.407Z,84.50
2017-10-22T23:21:05.574Z,83.60
2017-10-22T23:24:13.159Z,87.00
2017-10-22T23:27:19.872Z,85.30
2017-10-22T23:30:22.354Z,85.20
2017-10-22T23:33:23.957Z,85.20
2017-10-22T23:36:25.745Z,84.40
2017-10-22T23:39:28.619Z,84.90
2017-10-22T23:42:32.035Z,84.40
2017-10-22T23:45:33.738Z,84.20
2017-10-22T23:48:36.381Z,84.80
2017-10-22T23:51:38.170Z,85.60
2017-10-22T23:54:41.478Z,84.20
2017-10-22T23:57:43.217Z,85.40
